sensor_id;sensor_type;location;lat;lon;timestamp;pressure;altitude;pressure_sealevel;temperature;humidity
4735;BME280;2381;50.676;12.612;2022-08-19T00:02:46;97093.44;;;18.65;100.00
4735;BME280;2381;50.676;12.612;2022-08-19T00:05:50;97115.25;;;18.62;100.00
4735;BME280;2381;50.676;12.612;2022-08-19T00:08:54;97125.94;;;18.62;100.00
4735;BME280;2381;50.676;12.612;2022-08-19T00:11:59;97110.88;;;18.56;100.00
4735;BME280;2381;50.676;12.612;2022-08-19T00:15:03;97121.22;;;18.52;100.00
4735;BME280;2381;50.676;12.612;2022-08-19T00:18:12;97129.78;;;18.54;100.00
4735;BME280;2381;50.676;12.612;2022-08-19T00:21:15;97117.34;;;18.60;100.00
4735;BME280;2381;50.676;12.612;2022-08-19T00:24:19;97131.41;;;18.55;100.00
4735;BME280;2381;50.676;12.612;2022-08-19T00:27:23;97132.47;;;18.54;100.00
4735;BME280;2381;50.676;12.612;2022-08-19T00:30:28;97131.97;;;18.57;100.00
4735;BME280;2381;50.676;12.612;2022-08-19T00:33:31;97124.13;;;18.51;100.00
4735;BME280;2381;50.676;12.612;2022-08-19T00:36:34;97128.66;;;18.50;100.00
4735;BME280;2381;50.676;12.612;2022-08-19T00:39:38;97122.84;;;18.53;100.00
4735;BME280;2381;50.676;12.612;2022-08-19T00:42:45;97139.31;;;18.50;100.00
4735;BME280;2381;50.676;12.612;2022-08-19T00:45:49;97140.13;;;18.51;100.00
4735;BME280;2381;50.676;12.612;2022-08-19T00:48:54;97141.25;;;18.55;100.00
4735;BME280;2381;50.676;12.612;2022-08-19T00:52:00;97152.75;;;18.55;100.00
4735;BME280;2381;50.676;12.612;2022-08-19T00:55:07;97162.94;;;18.58;100.00
4735;BME280;2381;50.676;12.612;2022-08-19T00:58:16;97155.28;;;18.62;100.00
4735;BME280;2381;50.676;12.612;2022-08-19T01:01:19;97159.00;;;18.61;100.00
4735;BME280;2381;50.676;12.612;2022-08-19T01:04:22;97168.13;;;18.65;100.00
4735;BME280;2381;50.676;12.612;2022-08-19T01:07:25;97158.44;;;18.59;100.00
4735;BME280;2381;50.676;12.612;2022-08-19T01:10:31;97164.09;;;18.62;100.00
4735;BME280;2381;50.676;12.612;2022-08-19T01:13:39;97172.81;;;18.58;100.00
4735;BME280;2381;50.676;12.612;2022-08-19T01:16:51;97166.50;;;18.64;100.00
4735;BME280;2381;50.676;12.612;2022-08-19T01:19:55;97150.41;;;18.59;100.00
4735;BME280;2381;50.676;12.612;2022-08-19T01:23:00;97146.84;;;18.53;100.00
4735;BME280;2381;50.676;12.612;2022-08-19T01:26:03;97138.03;;;18.53;100.00
4735;BME280;2381;50.676;12.612;2022-08-19T01:29:08;97134.00;;;18.50;100.00
4735;BME280;2381;50.676;12.612;2022-08-19T01:32:15;97138.72;;;18.48;100.00
4735;BME280;2381;50.676;12.612;2022-08-19T01:35:38;97144.31;;;18.47;100.00
4735;BME280;2381;50.676;12.612;2022-08-19T01:38:55;97156.34;;;18.49;100.00
4735;BME280;2381;50.676;12.612;2022-08-19T01:42:03;97159.75;;;18.45;100.00
4735;BME280;2381;50.676;12.612;2022-08-19T01:45:07;97172.94;;;18.51;100.00
4735;BME280;2381;50.676;12.612;2022-08-19T01:48:11;97189.09;;;18.45;100.00
4735;BME280;2381;50.676;12.612;2022-08-19T01:51:14;97180.59;;;18.48;100.00
4735;BME280;2381;50.676;12.612;2022-08-19T01:54:19;97174.72;;;18.46;100.00
4735;BME280;2381;50.676;12.612;2022-08-19T01:57:27;97175.41;;;18.42;100.00
4735;BME280;2381;50.676;12.612;2022-08-19T02:00:32;97174.34;;;18.42;100.00
4735;BME280;2381;50.676;12.612;2022-08-19T02:03:35;97192.19;;;18.53;100.00
4735;BME280;2381;50.676;12.612;2022-08-19T02:06:38;97199.03;;;18.49;100.00
4735;BME280;2381;50.676;12.612;2022-08-19T02:09:42;97203.66;;;18.54;100.00
4735;BME280;2381;50.676;12.612;2022-08-19T02:12:45;97210.75;;;18.48;100.00
4735;BME280;2381;50.676;12.612;2022-08-19T02:15:48;97188.75;;;18.42;100.00
4735;BME280;2381;50.676;12.612;2022-08-19T02:18:51;97188.75;;;18.42;100.00
4735;BME280;2381;50.676;12.612;2022-08-19T02:21:54;97182.09;;;18.44;100.00
4735;BME280;2381;50.676;12.612;2022-08-19T02:24:58;97157.53;;;18.42;100.00
4735;BME280;2381;50.676;12.612;2022-08-19T02:28:02;97171.22;;;18.45;100.00
4735;BME280;2381;50.676;12.612;2022-08-19T02:31:09;97187.00;;;18.47;100.00
4735;BME280;2381;50.676;12.612;2022-08-19T02:34:12;97199.28;;;18.48;100.00
4735;BME280;2381;50.676;12.612;2022-08-19T02:37:15;97199.63;;;18.51;100.00
4735;BME280;2381;50.676;12.612;2022-08-19T02:40:36;97204.34;;;18.61;100.00
4735;BME280;2381;50.676;12.612;2022-08-19T02:43:39;97205.16;;;18.61;100.00
4735;BME280;2381;50.676;12.612;2022-08-19T02:47:02;97233.00;;;18.65;100.00
4735;BME280;2381;50.676;12.612;2022-08-19T02:50:07;97253.41;;;18.71;100.00
4735;BME280;2381;50.676;12.612;2022-08-19T02:53:10;97260.81;;;18.69;100.00
4735;BME280;2381;50.676;12.612;2022-08-19T02:56:15;97260.00;;;18.69;100.00
4735;BME280;2381;50.676;12.612;2022-08-19T02:59:19;97257.13;;;18.70;100.00
4735;BME280;2381;50.676;12.612;2022-08-19T03:02:23;97257.34;;;18.69;100.00
4735;BME280;2381;50.676;12.612;2022-08-19T03:05:26;97245.75;;;18.63;100.00
4735;BME280;2381;50.676;12.612;2022-08-19T03:08:50;97249.91;;;18.59;100.00
4735;BME280;2381;50.676;12.612;2022-08-19T03:11:54;97265.47;;;18.62;100.00
4735;BME280;2381;50.676;12.612;2022-08-19T03:14:57;97262.91;;;18.67;100.00
4735;BME280;2381;50.676;12.612;2022-08-19T03:18:00;97268.25;;;18.67;100.00
4735;BME280;2381;50.676;12.612;2022-08-19T03:21:04;97266.06;;;18.64;100.00
4735;BME280;2381;50.676;12.612;2022-08-19T03:24:13;97254.81;;;18.62;100.00
4735;BME280;2381;50.676;12.612;2022-08-19T03:27:18;97255.03;;;18.61;100.00
4735;BME280;2381;50.676;12.612;2022-08-19T03:30:21;97262.69;;;18.57;100.00
4735;BME280;2381;50.676;12.612;2022-08-19T03:33:26;97271.03;;;18.61;100.00
4735;BME280;2381;50.676;12.612;2022-08-19T03:36:29;97276.25;;;18.67;100.00
4735;BME280;2381;50.676;12.612;2022-08-19T03:39:33;97275.69;;;18.65;100.00
4735;BME280;2381;50.676;12.612;2022-08-19T03:42:37;97274.53;;;18.61;100.00
4735;BME280;2381;50.676;12.612;2022-08-19T03:46:02;97265.34;;;18.69;100.00
4735;BME280;2381;50.676;12.612;2022-08-19T03:49:06;97269.88;;;18.68;100.00
4735;BME280;2381;50.676;12.612;2022-08-19T03:52:10;97281.59;;;18.67;100.00
4735;BME280;2381;50.676;12.612;2022-08-19T03:55:14;97289.47;;;18.74;100.00
4735;BME280;2381;50.676;12.612;2022-08-19T03:58:18;97295.16;;;18.77;100.00
4735;BME280;2381;50.676;12.612;2022-08-19T04:01:23;97280.09;;;18.71;100.00
4735;BME280;2381;50.676;12.612;2022-08-19T04:04:36;97278.56;;;18.64;100.00
4735;BME280;2381;50.676;12.612;2022-08-19T04:07:40;97280.53;;;18.68;100.00
4735;BME280;2381;50.676;12.612;2022-08-19T04:10:43;97283.81;;;18.70;100.00
4735;BME280;2381;50.676;12.612;2022-08-19T04:13:48;97282.63;;;18.66;100.00
4735;BME280;2381;50.676;12.612;2022-08-19T04:16:53;97283.81;;;18.59;100.00
4735;BME280;2381;50.676;12.612;2022-08-19T04:19:56;97289.84;;;18.54;100.00
4735;BME280;2381;50.676;12.612;2022-08-19T04:23:01;97284.38;;;18.61;100.00
4735;BME280;2381;50.676;12.612;2022-08-19T04:26:04;97288.94;;;18.60;100.00
4735;BME280;2381;50.676;12.612;2022-08-19T04:29:14;97287.41;;;18.53;100.00
4735;BME280;2381;50.676;12.612;2022-08-19T04:32:18;97290.63;;;18.55;100.00
4735;BME280;2381;50.676;12.612;2022-08-19T04:35:20;97297.84;;;18.54;100.00
4735;BME280;2381;50.676;12.612;2022-08-19T04:38:25;97297.28;;;18.52;100.00
4735;BME280;2381;50.676;12.612;2022-08-19T04:41:29;97298.75;;;18.48;100.00
4735;BME280;2381;50.676;12.612;2022-08-19T04:44:50;97306.19;;;18.46;100.00
4735;BME280;2381;50.676;12.612;2022-08-19T04:47:55;97312.72;;;18.50;100.00
4735;BME280;2381;50.676;12.612;2022-08-19T04:51:19;97322.91;;;18.53;100.00
4735;BME280;2381;50.676;12.612;2022-08-19T04:54:23;97317.00;;;18.51;100.00
4735;BME280;2381;50.676;12.612;2022-08-19T04:57:39;97311.66;;;18.51;100.00
4735;BME280;2381;50.676;12.612;2022-08-19T05:00:44;97320.94;;;18.49;100.00
4735;BME280;2381;50.676;12.612;2022-08-19T05:03:46;97320.47;;;18.41;100.00
4735;BME280;2381;50.676;12.612;2022-08-19T05:06:49;97325.81;;;18.41;100.00
4735;BME280;2381;50.676;12.612;2022-08-19T05:10:00;97337.50;;;18.39;100.00
4735;BME280;2381;50.676;12.612;2022-08-19T05:13:04;97338.78;;;18.37;100.00
4735;BME280;2381;50.676;12.612;2022-08-19T05:16:09;97345.97;;;18.37;100.00
4735;BME280;2381;50.676;12.612;2022-08-19T05:19:13;97360.47;;;18.41;100.00
4735;BME280;2381;50.676;12.612;2022-08-19T05:22:34;97365.81;;;18.41;100.00
4735;BME280;2381;50.676;12.612;2022-08-19T05:25:40;97373.22;;;18.38;100.00
4735;BME280;2381;50.676;12.612;2022-08-19T05:28:44;97377.63;;;18.44;100.00
4735;BME280;2381;50.676;12.612;2022-08-19T05:31:49;97376.59;;;18.45;100.00
4735;BME280;2381;50.676;12.612;2022-08-19T05:34:53;97384.38;;;18.47;100.00
4735;BME280;2381;50.676;12.612;2022-08-19T05:37:56;97398.16;;;18.44;100.00
4735;BME280;2381;50.676;12.612;2022-08-19T05:40:59;97395.84;;;18.47;100.00
4735;BME280;2381;50.676;12.612;2022-08-19T05:44:04;97415.19;;;18.43;100.00
4735;BME280;2381;50.676;12.612;2022-08-19T05:47:13;97424.59;;;18.45;100.00
4735;BME280;2381;50.676;12.612;2022-08-19T05:50:16;97428.00;;;18.52;100.00
4735;BME280;2381;50.676;12.612;2022-08-19T05:53:19;97422.88;;;18.51;100.00
4735;BME280;2381;50.676;12.612;2022-08-19T05:56:22;97441.75;;;18.49;100.00
4735;BME280;2381;50.676;12.612;2022-08-19T05:59:25;97449.91;;;18.54;100.00
4735;BME280;2381;50.676;12.612;2022-08-19T06:02:29;97461.16;;;18.56;100.00
4735;BME280;2381;50.676;12.612;2022-08-19T06:05:32;97463.94;;;18.50;100.00
4735;BME280;2381;50.676;12.612;2022-08-19T06:08:52;97474.38;;;18.51;100.00
4735;BME280;2381;50.676;12.612;2022-08-19T06:11:56;97483.91;;;18.59;100.00
4735;BME280;2381;50.676;12.612;2022-08-19T06:15:05;97492.38;;;18.56;100.00
4735;BME280;2381;50.676;12.612;2022-08-19T06:18:10;97493.75;;;18.58;100.00
4735;BME280;2381;50.676;12.612;2022-08-19T06:21:13;97495.63;;;18.58;100.00
4735;BME280;2381;50.676;12.612;2022-08-19T06:24:18;97490.03;;;18.59;100.00
4735;BME280;2381;50.676;12.612;2022-08-19T06:27:22;97484.38;;;18.56;100.00
4735;BME280;2381;50.676;12.612;2022-08-19T06:30:25;97487.16;;;18.61;100.00
4735;BME280;2381;50.676;12.612;2022-08-19T06:33:30;97489.59;;;18.62;100.00
4735;BME280;2381;50.676;12.612;2022-08-19T06:36:35;97493.31;;;18.61;100.00
4735;BME280;2381;50.676;12.612;2022-08-19T06:39:41;97504.00;;;18.61;100.00
4735;BME280;2381;50.676;12.612;2022-08-19T06:42:44;97500.72;;;18.59;100.00
4735;BME280;2381;50.676;12.612;2022-08-19T06:45:55;97497.25;;;18.59;100.00
4735;BME280;2381;50.676;12.612;2022-08-19T06:49:00;97496.09;;;18.66;100.00
4735;BME280;2381;50.676;12.612;2022-08-19T06:52:04;97489.59;;;18.62;100.00
4735;BME280;2381;50.676;12.612;2022-08-19T06:55:08;97487.63;;;18.69;100.00
4735;BME280;2381;50.676;12.612;2022-08-19T06:58:12;97484.69;;;18.59;100.00
4735;BME280;2381;50.676;12.612;2022-08-19T07:01:15;97476.59;;;18.54;100.00
4735;BME280;2381;50.676;12.612;2022-08-19T07:04:24;97488.41;;;18.58;100.00
4735;BME280;2381;50.676;12.612;2022-08-19T07:07:27;97474.97;;;18.65;100.00
4735;BME280;2381;50.676;12.612;2022-08-19T07:10:30;97472.66;;;18.68;100.00
4735;BME280;2381;50.676;12.612;2022-08-19T07:13:34;97473.00;;;18.60;100.00
4735;BME280;2381;50.676;12.612;2022-08-19T07:16:38;97481.34;;;18.52;100.00
4735;BME280;2381;50.676;12.612;2022-08-19T07:19:45;97484.25;;;18.62;100.00
4735;BME280;2381;50.676;12.612;2022-08-19T07:22:47;97478.22;;;18.55;100.00
4735;BME280;2381;50.676;12.612;2022-08-19T07:25:50;97489.09;;;18.54;100.00
4735;BME280;2381;50.676;12.612;2022-08-19T07:28:54;97499.75;;;18.54;100.00
4735;BME280;2381;50.676;12.612;2022-08-19T07:32:00;97509.31;;;18.61;100.00
4735;BME280;2381;50.676;12.612;2022-08-19T07:35:05;97519.53;;;18.64;100.00
4735;BME280;2381;50.676;12.612;2022-08-19T07:38:08;97505.50;;;18.69;100.00
4735;BME280;2381;50.676;12.612;2022-08-19T07:41:13;97506.75;;;18.66;100.00
4735;BME280;2381;50.676;12.612;2022-08-19T07:44:17;97507.69;;;18.60;100.00
4735;BME280;2381;50.676;12.612;2022-08-19T07:47:21;97512.94;;;18.67;100.00
4735;BME280;2381;50.676;12.612;2022-08-19T07:50:45;97523.72;;;18.72;100.00
4735;BME280;2381;50.676;12.612;2022-08-19T07:53:50;97524.97;;;18.69;100.00
4735;BME280;2381;50.676;12.612;2022-08-19T07:56:53;97524.41;;;18.67;100.00
4735;BME280;2381;50.676;12.612;2022-08-19T07:59:56;97516.84;;;18.64;100.00
4735;BME280;2381;50.676;12.612;2022-08-19T08:02:59;97520.31;;;18.65;100.00
4735;BME280;2381;50.676;12.612;2022-08-19T08:06:03;97533.81;;;18.70;100.00
4735;BME280;2381;50.676;12.612;2022-08-19T08:09:29;97548.09;;;18.75;100.00
4735;BME280;2381;50.676;12.612;2022-08-19T08:12:37;97545.16;;;18.65;100.00
4735;BME280;2381;50.676;12.612;2022-08-19T08:15:42;97548.09;;;18.75;100.00
4735;BME280;2381;50.676;12.612;2022-08-19T08:18:46;97554.34;;;18.69;100.00
4735;BME280;2381;50.676;12.612;2022-08-19T08:21:57;97550.03;;;18.57;100.00
4735;BME280;2381;50.676;12.612;2022-08-19T08:25:03;97553.50;;;18.57;100.00
4735;BME280;2381;50.676;12.612;2022-08-19T08:28:07;97539.00;;;18.53;100.00
4735;BME280;2381;50.676;12.612;2022-08-19T08:31:11;97542.38;;;18.60;100.00
4735;BME280;2381;50.676;12.612;2022-08-19T08:34:14;97545.38;;;18.52;100.00
4735;BME280;2381;50.676;12.612;2022-08-19T08:37:18;97553.13;;;18.54;100.00
4735;BME280;2381;50.676;12.612;2022-08-19T08:40:28;97554.53;;;18.56;100.00
4735;BME280;2381;50.676;12.612;2022-08-19T08:43:34;97552.44;;;18.58;100.00
4735;BME280;2381;50.676;12.612;2022-08-19T08:46:40;97550.38;;;18.60;100.00
4735;BME280;2381;50.676;12.612;2022-08-19T08:49:47;97560.59;;;18.63;100.00
4735;BME280;2381;50.676;12.612;2022-08-19T08:52:56;97568.44;;;18.58;100.00
4735;BME280;2381;50.676;12.612;2022-08-19T08:56:02;97555.84;;;18.65;100.00
4735;BME280;2381;50.676;12.612;2022-08-19T08:59:12;97555.13;;;18.58;100.00
4735;BME280;2381;50.676;12.612;2022-08-19T09:02:18;97537.75;;;18.67;100.00
4735;BME280;2381;50.676;12.612;2022-08-19T09:05:23;97533.09;;;18.63;100.00
4735;BME280;2381;50.676;12.612;2022-08-19T09:08:48;97537.16;;;18.65;100.00
4735;BME280;2381;50.676;12.612;2022-08-19T09:12:03;97539.72;;;18.60;100.00
4735;BME280;2381;50.676;12.612;2022-08-19T09:15:14;97544.59;;;18.63;100.00
4735;BME280;2381;50.676;12.612;2022-08-19T09:18:17;97530.06;;;18.59;100.00
4735;BME280;2381;50.676;12.612;2022-08-19T09:21:21;97534.72;;;18.64;100.00
4735;BME280;2381;50.676;12.612;2022-08-19T09:24:35;97524.88;;;18.64;100.00
4735;BME280;2381;50.676;12.612;2022-08-19T09:27:39;97529.16;;;18.65;100.00
4735;BME280;2381;50.676;12.612;2022-08-19T09:30:44;97537.75;;;18.67;100.00
4735;BME280;2381;50.676;12.612;2022-08-19T09:33:47;97535.66;;;18.69;100.00
4735;BME280;2381;50.676;12.612;2022-08-19T09:36:53;97524.19;;;18.80;100.00
4735;BME280;2381;50.676;12.612;2022-08-19T09:39:58;97522.94;;;18.83;100.00
4735;BME280;2381;50.676;12.612;2022-08-19T09:43:02;97531.88;;;18.88;100.00
4735;BME280;2381;50.676;12.612;2022-08-19T09:46:14;97531.88;;;18.88;100.00
4735;BME280;2381;50.676;12.612;2022-08-19T09:49:20;97530.97;;;18.94;100.00
4735;BME280;2381;50.676;12.612;2022-08-19T09:52:24;97540.00;;;19.05;100.00
4735;BME280;2381;50.676;12.612;2022-08-19T09:55:34;97535.09;;;19.20;100.00
4735;BME280;2381;50.676;12.612;2022-08-19T09:58:38;97529.56;;;19.15;100.00
4735;BME280;2381;50.676;12.612;2022-08-19T10:01:41;97530.91;;;19.24;100.00
4735;BME280;2381;50.676;12.612;2022-08-19T10:04:46;97523.56;;;19.19;100.00
4735;BME280;2381;50.676;12.612;2022-08-19T10:08:06;97517.38;;;19.07;100.00
4735;BME280;2381;50.676;12.612;2022-08-19T10:11:15;97509.97;;;18.98;100.00
4735;BME280;2381;50.676;12.612;2022-08-19T10:14:35;97516.34;;;18.97;100.00
4735;BME280;2381;50.676;12.612;2022-08-19T10:17:39;97504.16;;;19.01;100.00
4735;BME280;2381;50.676;12.612;2022-08-19T10:20:49;97507.03;;;18.99;100.00
4735;BME280;2381;50.676;12.612;2022-08-19T10:23:56;97510.91;;;19.03;100.00
4735;BME280;2381;50.676;12.612;2022-08-19T10:27:01;97506.59;;;19.02;100.00
4735;BME280;2381;50.676;12.612;2022-08-19T10:30:06;97503.47;;;19.05;100.00
4735;BME280;2381;50.676;12.612;2022-08-19T10:33:13;97508.59;;;19.07;100.00
4735;BME280;2381;50.676;12.612;2022-08-19T10:36:36;97513.44;;;19.10;100.00
4735;BME280;2381;50.676;12.612;2022-08-19T10:39:57;97519.69;;;19.04;100.00
4735;BME280;2381;50.676;12.612;2022-08-19T10:43:01;97510.19;;;19.08;100.00
4735;BME280;2381;50.676;12.612;2022-08-19T10:46:04;97507.41;;;19.03;100.00
4735;BME280;2381;50.676;12.612;2022-08-19T10:49:14;97501.25;;;19.02;100.00
4735;BME280;2381;50.676;12.612;2022-08-19T10:52:17;97503.00;;;18.97;100.00
4735;BME280;2381;50.676;12.612;2022-08-19T10:55:39;97495.44;;;18.82;100.00
4735;BME280;2381;50.676;12.612;2022-08-19T10:59:01;97500.63;;;18.66;100.00
4735;BME280;2381;50.676;12.612;2022-08-19T11:02:07;97499.09;;;18.58;100.00
4735;BME280;2381;50.676;12.612;2022-08-19T11:05:12;97496.63;;;18.45;100.00
4735;BME280;2381;50.676;12.612;2022-08-19T11:08:16;97499.44;;;18.50;100.00
4735;BME280;2381;50.676;12.612;2022-08-19T11:11:24;97506.16;;;18.53;100.00
4735;BME280;2381;50.676;12.612;2022-08-19T11:14:29;97503.00;;;18.44;100.00
4735;BME280;2381;50.676;12.612;2022-08-19T11:17:35;97502.28;;;18.38;100.00
4735;BME280;2381;50.676;12.612;2022-08-19T11:20:41;97500.53;;;18.32;100.00
4735;BME280;2381;50.676;12.612;2022-08-19T11:23:44;97499.56;;;18.26;100.00
4735;BME280;2381;50.676;12.612;2022-08-19T11:26:50;97496.53;;;18.23;100.00
4735;BME280;2381;50.676;12.612;2022-08-19T11:29:55;97498.09;;;18.12;100.00
4735;BME280;2381;50.676;12.612;2022-08-19T11:32:58;97500.34;;;17.97;100.00
4735;BME280;2381;50.676;12.612;2022-08-19T11:36:02;97499.59;;;17.90;100.00
4735;BME280;2381;50.676;12.612;2022-08-19T11:39:07;97500.81;;;17.76;100.00
4735;BME280;2381;50.676;12.612;2022-08-19T11:42:11;97507.19;;;17.75;100.00
4735;BME280;2381;50.676;12.612;2022-08-19T11:45:32;97511.69;;;17.75;100.00
4735;BME280;2381;50.676;12.612;2022-08-19T11:48:36;97521.19;;;17.71;100.00
4735;BME280;2381;50.676;12.612;2022-08-19T11:51:39;97524.44;;;17.73;100.00
4735;BME280;2381;50.676;12.612;2022-08-19T11:54:44;97521.97;;;17.71;100.00
4735;BME280;2381;50.676;12.612;2022-08-19T11:57:47;97528.13;;;17.72;100.00
4735;BME280;2381;50.676;12.612;2022-08-19T12:00:52;97529.75;;;17.73;100.00
4735;BME280;2381;50.676;12.612;2022-08-19T12:03:56;97524.13;;;17.63;100.00
4735;BME280;2381;50.676;12.612;2022-08-19T12:06:59;97530.03;;;17.65;100.00
4735;BME280;2381;50.676;12.612;2022-08-19T12:10:02;97530.63;;;17.67;100.00
4735;BME280;2381;50.676;12.612;2022-08-19T12:13:05;97540.25;;;17.68;100.00
4735;BME280;2381;50.676;12.612;2022-08-19T12:16:12;97548.69;;;17.65;100.00
4735;BME280;2381;50.676;12.612;2022-08-19T12:19:15;97548.25;;;17.68;100.00
4735;BME280;2381;50.676;12.612;2022-08-19T12:22:23;97546.78;;;17.72;100.00
4735;BME280;2381;50.676;12.612;2022-08-19T12:25:26;97549.81;;;17.75;100.00
4735;BME280;2381;50.676;12.612;2022-08-19T12:28:29;97555.56;;;17.72;100.00
4735;BME280;2381;50.676;12.612;2022-08-19T12:31:34;97555.56;;;17.72;100.00
4735;BME280;2381;50.676;12.612;2022-08-19T12:34:37;97560.47;;;17.75;100.00
4735;BME280;2381;50.676;12.612;2022-08-19T12:37:40;97564.19;;;17.74;100.00
4735;BME280;2381;50.676;12.612;2022-08-19T12:40:57;97557.16;;;17.80;100.00
4735;BME280;2381;50.676;12.612;2022-08-19T12:44:01;97557.06;;;17.86;100.00
4735;BME280;2381;50.676;12.612;2022-08-19T12:47:10;97552.25;;;17.77;100.00
4735;BME280;2381;50.676;12.612;2022-08-19T12:50:16;97556.41;;;17.91;100.00
4735;BME280;2381;50.676;12.612;2022-08-19T12:53:18;97550.75;;;17.99;100.00
4735;BME280;2381;50.676;12.612;2022-08-19T12:56:24;97543.44;;;17.94;100.00
4735;BME280;2381;50.676;12.612;2022-08-19T12:59:27;97541.75;;;18.00;100.00
4735;BME280;2381;50.676;12.612;2022-08-19T13:02:32;97545.13;;;18.07;100.00
4735;BME280;2381;50.676;12.612;2022-08-19T13:05:39;97538.22;;;18.17;100.00
4735;BME280;2381;50.676;12.612;2022-08-19T13:08:45;97529.41;;;18.17;100.00
4735;BME280;2381;50.676;12.612;2022-08-19T13:11:48;97520.59;;;18.16;100.00
4735;BME280;2381;50.676;12.612;2022-08-19T13:14:51;97521.19;;;18.18;100.00
4735;BME280;2381;50.676;12.612;2022-08-19T13:17:59;97508.53;;;18.14;100.00
4735;BME280;2381;50.676;12.612;2022-08-19T13:21:03;97506.59;;;18.21;100.00
4735;BME280;2381;50.676;12.612;2022-08-19T13:24:06;97506.28;;;18.29;100.00
4735;BME280;2381;50.676;12.612;2022-08-19T13:27:09;97498.34;;;18.22;100.00
4735;BME280;2381;50.676;12.612;2022-08-19T13:30:14;97494.38;;;18.31;100.00
4735;BME280;2381;50.676;12.612;2022-08-19T13:33:36;97487.91;;;18.38;100.00
4735;BME280;2381;50.676;12.612;2022-08-19T13:36:40;97487.78;;;18.34;100.00
4735;BME280;2381;50.676;12.612;2022-08-19T13:39:43;97477.47;;;18.37;100.00
4735;BME280;2381;50.676;12.612;2022-08-19T13:42:48;97475.03;;;18.36;100.00
4735;BME280;2381;50.676;12.612;2022-08-19T13:45:54;97464.50;;;18.41;100.00
4735;BME280;2381;50.676;12.612;2022-08-19T13:48:59;97457.97;;;18.37;100.00
4735;BME280;2381;50.676;12.612;2022-08-19T13:52:03;97452.66;;;18.37;100.00
4735;BME280;2381;50.676;12.612;2022-08-19T13:55:08;97447.00;;;18.44;100.00
4735;BME280;2381;50.676;12.612;2022-08-19T13:58:12;97439.09;;;18.38;100.00
4735;BME280;2381;50.676;12.612;2022-08-19T14:01:19;97419.13;;;18.29;100.00
4735;BME280;2381;50.676;12.612;2022-08-19T14:04:26;97417.88;;;18.32;100.00
4735;BME280;2381;50.676;12.612;2022-08-19T14:07:29;97421.97;;;18.27;100.00
4735;BME280;2381;50.676;12.612;2022-08-19T14:10:32;97418.72;;;18.26;100.00
4735;BME280;2381;50.676;12.612;2022-08-19T14:13:35;97424.06;;;18.26;100.00
4735;BME280;2381;50.676;12.612;2022-08-19T14:16:39;97421.97;;;18.27;100.00
4735;BME280;2381;50.676;12.612;2022-08-19T14:19:43;97430.16;;;18.33;100.00
4735;BME280;2381;50.676;12.612;2022-08-19T14:22:48;97424.47;;;18.29;100.00
4735;BME280;2381;50.676;12.612;2022-08-19T14:25:51;97418.50;;;18.27;100.00
4735;BME280;2381;50.676;12.612;2022-08-19T14:29:03;97421.41;;;18.26;100.00
4735;BME280;2381;50.676;12.612;2022-08-19T14:32:06;97416.06;;;18.26;100.00
4735;BME280;2381;50.676;12.612;2022-08-19T14:35:18;97409.47;;;18.28;100.00
4735;BME280;2381;50.676;12.612;2022-08-19T14:38:22;97414.22;;;18.26;100.00
4735;BME280;2381;50.676;12.612;2022-08-19T14:41:32;97416.94;;;18.38;100.00
4735;BME280;2381;50.676;12.612;2022-08-19T14:44:35;97413.09;;;18.34;100.00
4735;BME280;2381;50.676;12.612;2022-08-19T14:47:38;97399.19;;;18.32;100.00
4735;BME280;2381;50.676;12.612;2022-08-19T14:50:42;97402.13;;;18.42;100.00
4735;BME280;2381;50.676;12.612;2022-08-19T14:53:47;97394.09;;;18.42;100.00
4735;BME280;2381;50.676;12.612;2022-08-19T14:56:51;97407.56;;;18.46;100.00
4735;BME280;2381;50.676;12.612;2022-08-19T14:59:54;97393.75;;;18.49;100.00
4735;BME280;2381;50.676;12.612;2022-08-19T15:02:58;97388.09;;;18.46;100.00
4735;BME280;2381;50.676;12.612;2022-08-19T15:06:04;97378.69;;;18.43;100.00
4735;BME280;2381;50.676;12.612;2022-08-19T15:09:07;97379.25;;;18.45;100.00
4735;BME280;2381;50.676;12.612;2022-08-19T15:12:10;97375.88;;;18.38;100.00
4735;BME280;2381;50.676;12.612;2022-08-19T15:15:22;97380.63;;;18.37;100.00
4735;BME280;2381;50.676;12.612;2022-08-19T15:18:25;97375.44;;;18.42;100.00
4735;BME280;2381;50.676;12.612;2022-08-19T15:21:30;97376.22;;;18.42;100.00
4735;BME280;2381;50.676;12.612;2022-08-19T15:24:33;97370.53;;;18.38;100.00
4735;BME280;2381;50.676;12.612;2022-08-19T15:27:48;97358.81;;;18.39;100.00
4735;BME280;2381;50.676;12.612;2022-08-19T15:30:52;97355.72;;;18.42;100.00
4735;BME280;2381;50.676;12.612;2022-08-19T15:33:55;97343.06;;;18.49;100.00
4735;BME280;2381;50.676;12.612;2022-08-19T15:37:01;97341.56;;;18.53;100.00
4735;BME280;2381;50.676;12.612;2022-08-19T15:40:06;97335.28;;;18.59;100.00
4735;BME280;2381;50.676;12.612;2022-08-19T15:43:10;97334.84;;;18.62;100.00
4735;BME280;2381;50.676;12.612;2022-08-19T15:46:16;97322.22;;;18.58;100.00
4735;BME280;2381;50.676;12.612;2022-08-19T15:49:19;97308.28;;;18.56;100.00
4735;BME280;2381;50.676;12.612;2022-08-19T15:52:23;97317.78;;;18.52;100.00
4735;BME280;2381;50.676;12.612;2022-08-19T15:55:29;97309.09;;;18.56;100.00
4735;BME280;2381;50.676;12.612;2022-08-19T15:58:35;97300.50;;;18.54;100.00
4735;BME280;2381;50.676;12.612;2022-08-19T16:01:56;97303.88;;;18.50;100.00
4735;BME280;2381;50.676;12.612;2022-08-19T16:05:20;97311.06;;;18.49;100.00
4735;BME280;2381;50.676;12.612;2022-08-19T16:08:42;97314.88;;;18.42;100.00
4735;BME280;2381;50.676;12.612;2022-08-19T16:11:50;97320.22;;;18.42;100.00
4735;BME280;2381;50.676;12.612;2022-08-19T16:14:57;97323.94;;;18.41;100.00
4735;BME280;2381;50.676;12.612;2022-08-19T16:18:00;97322.53;;;18.38;100.00
4735;BME280;2381;50.676;12.612;2022-08-19T16:21:05;97318.81;;;18.39;100.00
4735;BME280;2381;50.676;12.612;2022-08-19T16:24:11;97326.38;;;18.42;100.00
4735;BME280;2381;50.676;12.612;2022-08-19T16:27:14;97313.75;;;18.38;100.00